Time;durP1;ratioP1;P1;durP2;ratioP2;P2;SDS_P1;SDS_P2;PMS_P1;PMS_P2;Temp;Humidity;BMP_temperature;BMP_pressure;BME280_temperature;BME280_humidity;BME280_pressure;Samples;Min_cycle;Max_cycle;Signal;HPM_P1;HPM_P2
2024/04/04 04:43:38;;;;;;;12.00;4.20;;;;;;;8.24;65.53;99779.05;113065;1243;22847;-51
2024/04/04 04:46:05;;;;;;;7.30;4.00;;;;;;;8.39;65.34;99780.31;113133;1241;22495;-44
2024/04/04 04:48:32;;;;;;;9.30;3.40;;;;;;;8.52;65.00;99774.92;113105;1237;23574;-45
2024/04/04 04:50:59;;;;;;;6.00;3.20;;;;;;;8.65;64.94;99770.06;113072;1245;22912;-51
2024/04/04 04:53:26;;;;;;;7.40;2.40;;;;;;;8.77;64.73;99767.09;112973;1241;22850;-44
2024/04/04 04:55:53;;;;;;;10.00;3.00;;;;;;;8.87;64.40;99766.22;112858;1246;204252;-54
2024/04/04 04:58:20;;;;;;;8.00;2.70;;;;;;;8.98;64.35;99770.55;113024;1244;22411;-44
2024/04/04 05:00:47;;;;;;;8.20;2.10;;;;;;;9.07;64.45;99770.36;113070;1244;22237;-44
2024/04/04 05:03:14;;;;;;;7.70;4.50;;;;;;;9.16;64.43;99771.55;113007;1246;22419;-44
2024/04/04 05:05:42;;;;;;;6.50;2.80;;;;;;;9.26;64.01;99763.86;113052;1237;22406;-44
2024/04/04 05:08:14;;;;;;;6.10;2.60;;;;;;;9.38;63.16;99765.21;112038;1244;22135;-52
2024/04/04 05:10:43;;;;;;;4.60;2.30;;;;;;;9.52;62.44;99770.04;113009;1248;22358;-53
2024/04/04 05:13:12;;;;;;;5.80;2.40;;;;;;;9.69;61.90;99765.44;112644;1241;22459;-43
2024/04/04 05:15:51;;;;;;;5.40;2.20;;;;;;;9.86;61.35;99766.58;113036;1245;23348;-52
2024/04/04 05:18:18;;;;;;;4.40;2.50;;;;;;;10.03;60.99;99759.66;113006;1244;22995;-47
2024/04/04 05:20:46;;;;;;;3.20;2.00;;;;;;;10.15;60.57;99758.20;112496;1244;24099;-46
2024/04/04 05:23:59;;;;;;;6.90;2.10;;;;;;;10.31;60.37;99754.81;112774;1248;22458;-43
2024/04/04 05:26:43;;;;;;;4.70;2.20;;;;;;;10.47;59.16;99757.48;112402;1248;23077;-44
2024/04/04 05:42:33;;;;;;;4.30;2.10;;;;;;;11.50;56.55;99776.85;112585;1248;22938;-50
2024/04/04 05:45:56;;;;;;;4.50;2.30;;;;;;;11.76;55.25;99776.52;112140;1247;22480;-43
2024/04/04 05:49:07;;;;;;;4.00;2.10;;;;;;;11.95;54.53;99774.73;112281;1247;22518;-51
2024/04/04 05:51:55;;;;;;;7.10;2.80;;;;;;;12.11;54.98;99772.94;111756;1247;22426;-45
2024/04/04 05:54:22;;;;;;;5.80;2.40;;;;;;;12.26;54.91;99779.70;112154;1242;22578;-53
2024/04/04 05:56:53;;;;;;;7.70;2.60;;;;;;;12.42;54.78;99782.61;112279;1247;22276;-46
2024/04/04 05:59:23;;;;;;;3.30;1.90;;;;;;;12.61;53.92;99787.73;112212;1248;22388;-44
2024/04/04 06:01:53;;;;;;;4.10;2.00;;;;;;;12.77;53.34;99783.45;112818;1248;23071;-44
2024/04/04 06:04:22;;;;;;;8.40;2.30;;;;;;;12.94;53.12;99791.73;111654;1248;22452;-45
2024/04/04 06:06:58;;;;;;;4.60;1.70;;;;;;;13.10;52.32;99789.15;112628;1247;22279;-51
2024/04/04 06:09:24;;;;;;;6.40;2.00;;;;;;;13.25;51.55;99794.15;112868;1248;22234;-52
2024/04/04 06:11:57;;;;;;;4.60;1.60;;;;;;;13.41;50.85;99793.33;112474;1247;23020;-45
2024/04/04 06:18:22;;;;;;;6.60;2.10;;;;;;;13.77;49.80;99793.13;111952;1247;22978;-45
2024/04/04 06:20:55;;;;;;;2.90;1.60;;;;;;;13.92;49.70;99787.91;112281;1248;23291;-44
2024/04/04 06:24:02;;;;;;;4.10;2.40;;;;;;;14.11;49.76;99788.70;112262;1248;22240;-52
2024/04/04 06:26:53;;;;;;;7.80;2.00;;;;;;;14.28;48.45;99788.49;112678;1247;23291;-45
2024/04/04 06:30:09;;;;;;;;;;;;;;;14.42;47.54;99788.52;112083;1248;22649;-51
2024/04/04 06:33:00;;;;;;;10.00;1.40;;;;;;;14.47;47.08;99785.45;112003;1247;22846;-52
2024/04/04 06:39:52;;;;;;;2.90;1.60;;;;;;;14.54;47.21;99784.41;112380;1247;22852;-46
2024/04/04 06:43:11;;;;;;;3.50;1.40;;;;;;;14.64;46.73;99785.04;112669;1247;22412;-44
2024/04/04 06:45:39;;;;;;;5.00;2.60;;;;;;;14.71;46.81;99787.52;112764;1247;22402;-44
2024/04/04 06:48:12;;;;;;;4.80;1.00;;;;;;;14.77;46.57;99784.02;112567;1247;22435;-52
2024/04/04 06:50:43;;;;;;;5.70;1.60;;;;;;;14.85;46.30;99788.37;110992;1247;22580;-44
2024/04/04 06:53:19;;;;;;;5.80;3.10;;;;;;;14.97;46.66;99783.70;111681;1247;22655;-52
2024/04/04 06:55:48;;;;;;;2.90;1.50;;;;;;;15.08;46.24;99786.20;112013;1248;22516;-51
2024/04/04 06:58:15;;;;;;;3.70;1.70;;;;;;;15.22;45.80;99790.21;112303;1248;22194;-52
2024/04/04 07:00:58;;;;;;;6.50;1.50;;;;;;;15.38;45.36;99789.58;112979;1248;23166;-53
2024/04/04 07:03:25;;;;;;;2.90;1.40;;;;;;;15.56;44.90;99786.65;112445;1248;22633;-53
2024/04/04 07:05:52;;;;;;;2.30;1.30;;;;;;;15.70;44.79;99790.84;112522;1248;24178;-52
2024/04/04 07:08:19;;;;;;;3.70;1.20;;;;;;;15.83;44.73;99784.48;112583;1247;22522;-46
2024/04/04 07:11:09;;;;;;;2.20;1.30;;;;;;;15.99;44.26;99786.81;112587;1248;22621;-51
2024/04/04 07:13:39;;;;;;;7.60;1.60;;;;;;;16.15;43.72;99788.45;112455;1247;22549;-45
2024/04/04 07:16:16;;;;;;;2.40;1.20;;;;;;;16.26;43.25;99796.71;112052;1247;26476;-44
2024/04/04 07:18:47;;;;;;;4.60;1.30;;;;;;;16.37;42.71;99784.77;112508;1247;22453;-45
2024/04/04 07:21:20;;;;;;;5.80;1.30;;;;;;;16.50;43.40;99780.46;112190;1248;22550;-44
2024/04/04 07:24:32;;;;;;;4.50;1.60;;;;;;;16.65;42.44;99790.19;112544;1248;22378;-44
2024/04/04 07:49:50;;;;;;;3.40;1.60;;;;;;;16.89;41.83;99795.77;112858;1247;22316;-45
2024/04/04 07:57:42;;;;;;;6.00;1.30;;;;;;;16.71;41.72;99799.34;113103;1247;22143;-52
2024/04/04 08:04:52;;;;;;;3.80;1.40;;;;;;;16.66;42.38;99805.48;112553;1247;22349;-47
2024/04/04 08:12:27;;;;;;;2.60;1.20;;;;;;;17.01;41.82;99799.25;112710;1247;22445;-44
2024/04/04 08:24:23;;;;;;;2.30;1.00;;;;;;;17.13;41.41;99795.98;111784;1247;22428;-52
2024/04/04 08:27:47;;;;;;;7.80;1.30;;;;;;;17.23;40.98;99787.73;112783;1247;22891;-53
2024/04/04 08:30:27;;;;;;;4.80;0.90;;;;;;;17.29;41.27;99784.67;112532;1247;22250;-52
2024/04/04 08:32:55;;;;;;;4.60;1.00;;;;;;;17.38;40.88;99785.27;112634;1247;22493;-44
2024/04/04 08:35:22;;;;;;;10.10;1.40;;;;;;;17.40;40.80;99799.10;112794;1248;22228;-52
2024/04/04 08:37:50;;;;;;;3.00;1.50;;;;;;;17.38;40.50;99800.94;112566;1247;22609;-52
2024/04/04 08:40:20;;;;;;;4.80;1.10;;;;;;;17.34;40.57;99792.26;112519;1247;22442;-45
2024/04/04 08:42:47;;;;;;;2.70;1.10;;;;;;;17.33;40.14;99798.84;112983;1247;22463;-45
2024/04/04 08:45:15;;;;;;;4.00;1.10;;;;;;;17.31;40.41;99787.45;112614;1248;22281;-51
2024/04/04 08:47:42;;;;;;;4.80;1.60;;;;;;;17.33;40.36;99796.55;112674;1247;22578;-51
2024/04/04 08:50:09;;;;;;;1.40;1.00;;;;;;;17.39;40.65;99782.04;112585;1248;22419;-51
2024/04/04 08:52:37;;;;;;;3.70;1.10;;;;;;;17.51;40.51;99798.70;112080;1247;22529;-51
2024/04/04 08:55:04;;;;;;;5.10;1.50;;;;;;;17.60;39.93;99790.80;112360;1247;22511;-43
2024/04/04 08:57:33;;;;;;;6.20;1.10;;;;;;;17.67;39.84;99779.61;112689;1247;23207;-45
2024/04/04 09:00:05;;;;;;;2.40;1.30;;;;;;;17.77;39.72;99770.46;112655;1247;22555;-45
2024/04/04 09:02:35;;;;;;;2.50;1.00;;;;;;;17.92;39.66;99771.29;112198;1247;23622;-53
2024/04/04 09:05:28;;;;;;;1.40;0.90;;;;;;;18.10;39.35;99770.06;112088;1247;22510;-44
2024/04/04 09:08:04;;;;;;;8.40;1.20;;;;;;;18.24;39.32;99764.41;112734;1247;22539;-51
2024/04/04 09:10:32;;;;;;;2.50;0.90;;;;;;;18.33;38.50;99773.58;112404;1247;22558;-51
2024/04/04 09:13:03;;;;;;;3.50;1.00;;;;;;;18.37;38.39;99772.52;112161;1247;23234;-43
2024/04/04 09:15:31;;;;;;;5.60;1.20;;;;;;;18.45;38.16;99775.37;111742;1247;24136;-44
2024/04/04 09:18:06;;;;;;;3.30;0.90;;;;;;;18.55;37.95;99768.77;112398;1247;22519;-52
2024/04/04 09:20:39;;;;;;;4.40;1.10;;;;;;;18.60;37.84;99778.63;111961;1247;22515;-44
2024/04/04 09:23:09;;;;;;;4.40;1.30;;;;;;;18.62;37.79;99759.48;111984;1247;24342;-52
2024/04/04 09:25:37;;;;;;;4.70;0.90;;;;;;;18.61;37.55;99766.77;112653;1247;23049;-53
2024/04/04 09:28:04;;;;;;;8.50;1.20;;;;;;;18.53;37.08;99759.30;112655;1247;22921;-51
2024/04/04 09:30:32;;;;;;;4.30;1.20;;;;;;;18.45;37.52;99778.89;112780;1247;22666;-52
2024/04/04 09:32:59;;;;;;;4.50;1.20;;;;;;;18.44;37.93;99766.38;112760;1248;22661;-52
2024/04/04 09:35:26;;;;;;;4.20;1.60;;;;;;;18.50;37.69;99764.21;112352;1248;22207;-54
2024/04/04 09:37:53;;;;;;;1.50;1.00;;;;;;;18.55;37.47;99772.12;112479;1247;23014;-46
2024/04/04 09:40:20;;;;;;;7.50;1.40;;;;;;;18.61;37.43;99772.07;111663;1248;23158;-53
2024/04/04 09:42:48;;;;;;;4.60;1.10;;;;;;;18.63;37.70;99771.64;112574;1247;22811;-43
2024/04/04 09:45:17;;;;;;;3.80;1.30;;;;;;;18.60;37.71;99775.45;111962;1247;22582;-43
2024/04/04 09:47:45;;;;;;;2.40;1.30;;;;;;;18.61;37.99;99760.77;112750;1247;22864;-43
2024/04/04 09:50:18;;;;;;;6.60;1.50;;;;;;;18.71;38.20;99770.45;112667;1247;23001;-46
2024/04/04 09:52:48;;;;;;;4.80;1.40;;;;;;;18.74;37.92;99764.34;112394;1247;22967;-45
2024/04/04 10:04:14;;;;;;;15.80;2.60;;;;;;;18.99;38.21;99768.40;112897;1247;22336;-45
2024/04/04 10:15:46;;;;;;;2.50;1.20;;;;;;;18.89;37.84;99778.33;112879;1247;22428;-46
2024/04/04 10:23:05;;;;;;;4.40;1.60;;;;;;;18.79;38.17;99765.00;113016;1247;22412;-54
2024/04/04 10:26:09;;;;;;;5.00;1.70;;;;;;;18.84;38.51;99758.08;112939;1247;22545;-45
2024/04/04 10:29:41;;;;;;;4.00;1.40;;;;;;;19.16;38.31;99767.47;113060;1248;22236;-55
2024/04/04 10:32:36;;;;;;;4.00;1.30;;;;;;;19.34;37.63;99770.19;112948;1247;22284;-55
2024/04/04 10:35:16;;;;;;;7.80;1.40;;;;;;;19.38;37.34;99769.32;112792;1247;22574;-44
2024/04/04 10:37:43;;;;;;;4.60;1.20;;;;;;;19.37;37.40;99763.00;112834;1247;22660;-43
2024/04/04 10:40:35;;;;;;;3.40;1.20;;;;;;;19.62;36.89;99746.17;112891;1247;22384;-46
2024/04/04 10:43:22;;;;;;;3.70;1.30;;;;;;;19.82;36.71;99761.86;112879;1247;22466;-44
2024/04/04 10:46:01;;;;;;;2.20;1.00;;;;;;;20.31;35.98;99779.71;112759;1247;22395;-52
2024/04/04 10:48:28;;;;;;;6.40;1.30;;;;;;;20.70;34.92;99769.89;112938;1247;22744;-53
2024/04/04 10:50:55;;;;;;;9.70;1.10;;;;;;;21.00;34.91;99771.19;112720;1247;23592;-54
2024/04/04 10:53:22;;;;;;;3.90;1.00;;;;;;;21.12;33.55;99762.93;113001;1247;22367;-50
2024/04/04 10:55:49;;;;;;;1.20;0.90;;;;;;;21.14;33.18;99776.66;112904;1247;23588;-52
2024/04/04 10:58:16;;;;;;;5.80;1.10;;;;;;;21.24;33.39;99763.37;112901;1247;22423;-52
2024/04/04 11:00:43;;;;;;;9.70;1.70;;;;;;;21.31;33.87;99778.10;112860;1247;22358;-49
2024/04/04 11:03:12;;;;;;;2.20;1.30;;;;;;;21.13;33.77;99769.11;112438;1247;23031;-46
2024/04/04 11:05:41;;;;;;;1.30;0.80;;;;;;;20.87;34.15;99764.79;112457;1247;22437;-53
2024/04/04 11:08:08;;;;;;;4.00;1.10;;;;;;;20.58;34.92;99774.52;112609;1247;22437;-44
2024/04/04 11:10:39;;;;;;;2.50;1.00;;;;;;;20.27;35.04;99761.84;112575;1247;23508;-53
2024/04/04 11:13:06;;;;;;;6.10;1.10;;;;;;;19.95;35.63;99774.19;112596;1247;22417;-54
2024/04/04 11:15:33;;;;;;;4.10;1.80;;;;;;;19.87;35.83;99770.65;112834;1247;22823;-53
2024/04/04 11:18:00;;;;;;;2.50;1.10;;;;;;;19.83;36.13;99771.02;112367;1247;22946;-54
2024/04/04 11:20:27;;;;;;;4.70;1.10;;;;;;;19.83;36.01;99757.05;112811;1240;22238;-46
2024/04/04 11:22:55;;;;;;;4.70;1.50;;;;;;;19.82;36.19;99760.64;112797;1247;24303;-45
2024/04/04 11:25:22;;;;;;;2.30;1.10;;;;;;;19.83;36.38;99779.70;112820;1247;22444;-43
2024/04/04 11:27:50;;;;;;;2.30;1.00;;;;;;;19.79;36.70;99767.70;112873;1247;22467;-51
2024/04/04 11:30:17;;;;;;;2.50;1.10;;;;;;;19.72;36.74;99759.49;112970;1247;22374;-53
2024/04/04 11:32:45;;;;;;;2.40;1.30;;;;;;;19.63;37.11;99766.44;112902;1247;23027;-52
2024/04/04 11:35:13;;;;;;;3.00;1.40;;;;;;;19.58;37.55;99760.14;112908;1247;22375;-53
2024/04/04 11:37:40;;;;;;;1.80;1.20;;;;;;;19.54;37.38;99766.48;112964;1247;22421;-52
2024/04/04 11:40:09;;;;;;;5.10;1.40;;;;;;;19.50;37.71;99762.06;112910;1247;23076;-52
2024/04/04 11:42:36;;;;;;;3.20;1.30;;;;;;;19.48;37.77;99768.35;112866;1247;22465;-52
2024/04/04 11:45:03;;;;;;;2.20;1.00;;;;;;;19.47;37.28;99767.70;112927;1247;22431;-53
2024/04/04 11:47:33;;;;;;;3.80;1.20;;;;;;;19.41;37.02;99769.89;112846;1247;22382;-53
2024/04/04 11:50:00;;;;;;;3.50;1.30;;;;;;;19.34;37.34;99768.05;112888;1247;22375;-53
2024/04/04 11:52:27;;;;;;;2.00;0.80;;;;;;;19.34;37.33;99766.87;112895;1247;22392;-53
2024/04/04 11:54:54;;;;;;;2.20;1.00;;;;;;;19.37;37.60;99772.16;112854;1247;22381;-44
2024/04/04 11:57:23;;;;;;;1.90;1.10;;;;;;;19.39;37.08;99768.55;112767;1241;22725;-54
2024/04/04 11:59:50;;;;;;;2.10;1.20;;;;;;;19.34;37.06;99763.32;112863;1247;22570;-49
2024/04/04 12:02:16;;;;;;;5.00;1.10;;;;;;;19.24;37.09;99766.41;112856;1247;22901;-45
2024/04/04 12:04:43;;;;;;;2.60;1.00;;;;;;;19.15;37.10;99773.89;112868;1247;22445;-53
2024/04/04 12:07:13;;;;;;;0.80;0.80;;;;;;;19.11;37.08;99771.54;112996;1247;23000;-53
2024/04/04 12:09:40;;;;;;;0.70;0.50;;;;;;;19.08;37.05;99767.63;112985;1247;22400;-53
2024/04/04 12:12:07;;;;;;;1.00;0.60;;;;;;;19.08;36.68;99770.28;112833;1247;22418;-52
2024/04/04 12:14:34;;;;;;;2.50;0.60;;;;;;;19.11;36.47;99764.31;113017;1248;22382;-51
2024/04/04 12:17:01;;;;;;;1.30;0.50;;;;;;;19.12;36.14;99766.73;113035;1247;22562;-53
2024/04/04 12:19:29;;;;;;;2.00;0.70;;;;;;;19.18;36.03;99758.36;113047;1247;22436;-53
2024/04/04 12:21:56;;;;;;;1.40;0.70;;;;;;;19.24;35.96;99767.10;112550;1247;22427;-53
2024/04/04 12:24:23;;;;;;;2.10;0.60;;;;;;;19.24;35.37;99774.34;113048;1247;22406;-53
2024/04/04 12:26:53;;;;;;;1.40;0.70;;;;;;;19.25;34.98;99766.02;112679;1247;22255;-54
2024/04/04 12:29:20;;;;;;;2.40;0.70;;;;;;;19.28;35.01;99764.46;112956;1247;22230;-52
2024/04/04 12:31:49;;;;;;;1.20;0.60;;;;;;;19.34;35.01;99769.30;113024;1247;23212;-51
2024/04/04 12:34:16;;;;;;;0.80;0.50;;;;;;;19.42;34.78;99778.52;113036;1247;23605;-52
2024/04/04 12:36:43;;;;;;;2.40;0.40;;;;;;;19.39;34.42;99764.88;112086;1247;22898;-51
2024/04/04 12:39:13;;;;;;;1.10;0.60;;;;;;;19.27;34.48;99765.73;113015;1247;22384;-53
2024/04/04 12:41:43;;;;;;;1.50;0.60;;;;;;;19.19;34.92;99771.79;112897;1247;22408;-53
2024/04/04 12:44:10;;;;;;;2.10;0.70;;;;;;;19.22;34.84;99772.36;112919;1247;22188;-53
2024/04/04 12:46:42;;;;;;;8.30;1.10;;;;;;;19.37;34.45;99770.23;112892;1247;22509;-46
2024/04/04 12:49:11;;;;;;;0.80;0.50;;;;;;;19.63;34.22;99781.67;112578;1247;23128;-53
2024/04/04 12:51:39;;;;;;;2.30;0.80;;;;;;;19.74;33.78;99775.32;112172;1247;24204;-44
2024/04/04 12:54:07;;;;;;;1.60;0.70;;;;;;;19.79;33.35;99773.33;112999;1247;22367;-45
2024/04/04 12:56:34;;;;;;;1.90;0.70;;;;;;;19.88;33.05;99775.21;113064;1247;23134;-44
2024/04/04 12:59:01;;;;;;;1.30;0.60;;;;;;;19.86;32.97;99763.66;113098;1246;22373;-52
2024/04/04 13:01:28;;;;;;;3.20;0.70;;;;;;;20.03;32.72;99763.36;112981;1247;22243;-53
2024/04/04 13:03:55;;;;;;;2.20;0.60;;;;;;;20.23;32.40;99767.53;113019;1247;22275;-53
2024/04/04 13:06:22;;;;;;;0.50;0.40;;;;;;;20.29;31.95;99755.95;113025;1247;22419;-53
2024/04/04 13:08:51;;;;;;;0.80;0.60;;;;;;;20.17;32.27;99767.84;112971;1247;23221;-53
2024/04/04 13:11:18;;;;;;;2.50;0.40;;;;;;;20.27;32.36;99766.48;112977;1247;22471;-53
2024/04/04 13:13:45;;;;;;;3.70;0.60;;;;;;;20.32;31.84;99758.95;113059;1247;22386;-52
2024/04/04 13:16:12;;;;;;;0.60;0.50;;;;;;;20.11;32.02;99761.75;113068;1247;22581;-53
2024/04/04 13:18:40;;;;;;;2.50;0.50;;;;;;;19.86;32.31;99764.17;113040;1247;22786;-53
2024/04/04 13:21:07;;;;;;;4.10;0.60;;;;;;;19.55;32.63;99772.11;111296;1247;24253;-52
2024/04/04 13:23:34;;;;;;;4.10;0.60;;;;;;;19.27;33.08;99770.70;111900;1247;23280;-52
2024/04/04 13:26:01;;;;;;;0.60;0.40;;;;;;;19.05;33.73;99771.46;112042;1247;22527;-52
2024/04/04 13:28:28;;;;;;;1.10;0.70;;;;;;;18.90;34.10;99769.09;112928;1247;22522;-52
2024/04/04 13:30:55;;;;;;;1.00;0.60;;;;;;;18.80;33.96;99771.31;112558;1247;22265;-51
2024/04/04 13:33:22;;;;;;;1.00;0.60;;;;;;;18.61;34.20;99769.42;112159;1247;22583;-44
2024/04/04 13:35:51;;;;;;;1.50;0.80;;;;;;;18.45;34.56;99772.70;112134;1247;22520;-42
2024/04/04 13:38:18;;;;;;;2.50;0.40;;;;;;;18.41;34.75;99774.81;111461;1247;22480;-51
2024/04/04 13:40:45;;;;;;;0.60;0.60;;;;;;;18.39;34.76;99774.74;111738;1247;24665;-52
2024/04/04 13:43:12;;;;;;;1.00;0.50;;;;;;;18.30;34.48;99781.44;112123;1247;22407;-52
2024/04/04 13:45:39;;;;;;;2.60;1.50;;;;;;;18.22;34.68;99781.25;112781;1247;22545;-53
2024/04/04 13:48:06;;;;;;;1.10;0.60;;;;;;;18.16;34.35;99781.14;113110;1247;23201;-53
2024/04/04 13:50:33;;;;;;;1.90;1.20;;;;;;;18.09;34.67;99792.68;111951;1247;23137;-53
2024/04/04 13:53:00;;;;;;;0.70;0.70;;;;;;;18.05;34.81;99788.77;111978;1247;22496;-45
2024/04/04 13:55:27;;;;;;;3.90;0.50;;;;;;;18.05;34.85;99789.11;113104;1247;22367;-51
2024/04/04 13:57:54;;;;;;;1.00;0.60;;;;;;;17.97;35.27;99793.86;113078;1247;22393;-43
2024/04/04 14:00:21;;;;;;;0.70;0.50;;;;;;;17.88;35.39;99795.60;113109;1247;22357;-51
2024/04/04 14:02:48;;;;;;;1.20;0.60;;;;;;;17.81;35.37;99796.40;113108;1247;22895;-43
2024/04/04 14:05:15;;;;;;;1.10;0.70;;;;;;;17.75;35.21;99802.10;113050;1247;22134;-43
2024/04/04 14:07:42;;;;;;;5.90;1.70;;;;;;;17.76;35.11;99800.99;113060;1247;22402;-45
2024/04/04 14:10:09;;;;;;;2.20;0.80;;;;;;;17.77;35.27;99806.05;113043;1247;22394;-51
2024/04/04 14:12:36;;;;;;;2.20;1.30;;;;;;;17.70;35.15;99807.88;112972;1247;22873;-43
2024/04/04 14:15:03;;;;;;;1.20;0.60;;;;;;;17.60;35.58;99803.68;111371;1247;23873;-54
2024/04/04 14:17:30;;;;;;;1.60;0.80;;;;;;;17.57;35.93;99804.48;113137;1247;22878;-44
2024/04/04 14:19:57;;;;;;;1.60;0.80;;;;;;;17.58;35.98;99806.05;113142;1247;22396;-53
2024/04/04 14:22:24;;;;;;;2.20;1.60;;;;;;;17.54;35.82;99802.47;113138;1247;23363;-51
2024/04/04 14:24:51;;;;;;;3.20;1.20;;;;;;;17.41;35.75;99805.75;113123;1238;22384;-52
2024/04/04 14:27:21;;;;;;;0.80;0.80;;;;;;;17.25;36.12;99808.78;113128;1247;22377;-45
2024/04/04 14:29:48;;;;;;;1.20;0.50;;;;;;;17.16;36.24;99803.84;113182;1247;22382;-51
2024/04/04 14:32:15;;;;;;;3.60;0.80;;;;;;;17.09;36.53;99806.55;113154;1247;23146;-44
2024/04/04 14:34:41;;;;;;;2.10;0.90;;;;;;;17.06;36.68;99801.20;113155;1247;22294;-44
2024/04/04 14:37:10;;;;;;;0.80;0.70;;;;;;;17.00;36.63;99803.46;113173;1247;22391;-51
2024/04/04 14:39:39;;;;;;;2.30;1.00;;;;;;;16.90;37.04;99804.52;113088;1246;23011;-52
2024/04/04 14:42:06;;;;;;;2.10;0.80;;;;;;;16.82;37.41;99808.34;113087;1247;23117;-50
2024/04/04 14:44:33;;;;;;;3.30;0.60;;;;;;;16.77;37.30;99812.04;112714;1248;22498;-43
2024/04/04 14:47:00;;;;;;;1.10;0.70;;;;;;;16.72;37.61;99815.34;113141;1247;22385;-53
2024/04/04 14:49:28;;;;;;;1.20;0.70;;;;;;;16.68;37.56;99815.09;113133;1247;23153;-43
2024/04/04 14:51:55;;;;;;;2.20;0.70;;;;;;;16.67;37.99;99820.23;113110;1247;22467;-47
2024/04/04 14:54:23;;;;;;;7.30;0.90;;;;;;;16.64;38.35;99818.74;110674;1248;22654;-54
2024/04/04 14:56:52;;;;;;;1.50;0.60;;;;;;;16.61;38.24;99822.18;110259;1247;22502;-46
2024/04/04 14:59:19;;;;;;;14.50;9.80;;;;;;;16.56;37.83;99817.44;110167;1248;22505;-54
2024/04/04 15:01:46;;;;;;;22.30;14.00;;;;;;;16.48;38.03;99819.77;110195;1248;25339;-45
2024/04/04 15:04:14;;;;;;;4.70;2.90;;;;;;;16.40;38.01;99826.73;110600;1247;22553;-55
2024/04/04 15:06:41;;;;;;;5.50;3.50;;;;;;;16.31;37.91;99835.11;110165;1248;22599;-46
2024/04/04 15:09:08;;;;;;;11.50;6.10;;;;;;;16.18;37.96;99834.27;110462;1247;22515;-45
2024/04/04 15:11:35;;;;;;;3.10;1.80;;;;;;;16.05;38.22;99832.00;110581;1247;22555;-54
2024/04/04 15:14:02;;;;;;;10.60;4.30;;;;;;;15.94;38.41;99835.50;111123;1247;26562;-55
2024/04/04 15:16:30;;;;;;;3.00;1.90;;;;;;;15.85;38.75;99836.45;110541;1247;24377;-54
